Time;durP1;ratioP1;P1;durP2;ratioP2;P2;SDS_P1;SDS_P2;PMS_P1;PMS_P2;Temp;Humidity;BMP_temperature;BMP_pressure;BME280_temperature;BME280_humidity;BME280_pressure;Samples;Min_cycle;Max_cycle;Signal;HPM_P1;HPM_P2
2022/01/08 00:02:03;;;;;;;5.53;3.50;;;4.20;99.90;;;;;;5016960;28;20587;-70
2022/01/08 00:04:29;;;;;;;5.73;3.67;;;4.20;99.90;;;;;;5007365;28;20228;-71
2022/01/08 00:06:56;;;;;;;6.10;3.20;;;4.20;99.90;;;;;;5003593;28;20458;-70
2022/01/08 00:09:22;;;;;;;3.77;3.03;;;4.20;99.90;;;;;;5007825;28;20992;-71
2022/01/08 00:11:48;;;;;;;4.20;2.70;;;4.20;99.90;;;;;;5025611;28;20495;-71
2022/01/08 00:14:15;;;;;;;2.53;2.27;;;4.20;99.90;;;;;;5043792;28;20503;-70
2022/01/08 00:16:40;;;;;;;3.00;2.40;;;4.20;99.90;;;;;;5026728;28;20460;-72
2022/01/08 00:19:07;;;;;;;2.83;2.40;;;4.20;99.90;;;;;;5043292;28;20463;-70
2022/01/08 00:21:33;;;;;;;2.90;2.60;;;4.20;99.90;;;;;;5021188;28;20594;-71
2022/01/08 00:23:59;;;;;;;4.90;2.97;;;4.20;99.90;;;;;;5023207;28;20496;-71
2022/01/08 00:26:25;;;;;;;3.30;2.60;;;4.20;99.90;;;;;;5025832;28;20468;-70
2022/01/08 00:28:51;;;;;;;3.40;3.00;;;4.20;99.90;;;;;;5020809;28;20590;-71
2022/01/08 00:31:16;;;;;;;3.90;3.10;;;4.20;99.90;;;;;;5031742;28;20304;-70
2022/01/08 00:33:42;;;;;;;3.30;2.30;;;4.30;99.90;;;;;;5036360;28;20336;-71
2022/01/08 00:36:08;;;;;;;3.70;2.67;;;4.30;99.90;;;;;;5026860;28;20290;-71
2022/01/08 00:38:34;;;;;;;5.33;3.27;;;4.30;99.90;;;;;;5027788;28;20228;-71
2022/01/08 00:41:00;;;;;;;5.53;3.10;;;4.30;99.90;;;;;;5022494;28;20214;-71
2022/01/08 00:43:26;;;;;;;3.30;2.40;;;4.30;99.90;;;;;;5026664;28;20456;-70
2022/01/08 00:45:52;;;;;;;2.80;2.50;;;4.30;99.90;;;;;;5026703;28;20464;-71
2022/01/08 00:48:17;;;;;;;5.73;3.20;;;4.30;99.90;;;;;;5026917;28;20232;-71
2022/01/08 00:50:43;;;;;;;4.03;3.10;;;4.30;99.90;;;;;;5021481;28;20237;-71
2022/01/08 00:53:09;;;;;;;3.33;2.63;;;4.30;99.90;;;;;;4992090;28;20225;-70
2022/01/08 00:55:35;;;;;;;3.27;2.80;;;4.30;99.90;;;;;;5006073;28;20232;-72
2022/01/08 00:58:01;;;;;;;5.03;3.10;;;4.30;99.90;;;;;;4998175;28;20233;-70
2022/01/08 01:00:26;;;;;;;4.00;3.27;;;4.30;99.90;;;;;;5025318;28;20221;-71
2022/01/08 01:02:53;;;;;;;4.17;3.27;;;4.30;99.90;;;;;;5009950;28;20221;-71
2022/01/08 01:05:20;;;;;;;3.80;3.10;;;4.30;99.90;;;;;;5007567;28;20241;-71
2022/01/08 01:07:46;;;;;;;4.57;3.30;;;4.30;99.90;;;;;;5007117;28;20518;-71
2022/01/08 01:10:12;;;;;;;4.63;2.50;;;4.30;99.90;;;;;;5029905;28;20441;-71
2022/01/08 01:12:38;;;;;;;7.70;3.37;;;4.30;99.90;;;;;;5004832;28;20881;-71
2022/01/08 01:15:06;;;;;;;5.07;3.27;;;4.30;99.90;;;;;;4992189;28;20225;-71
2022/01/08 01:17:32;;;;;;;7.93;3.70;;;4.40;99.90;;;;;;5005941;28;20474;-71
2022/01/08 01:19:57;;;;;;;5.67;3.40;;;4.40;99.90;;;;;;5013030;28;20531;-70
2022/01/08 01:22:28;;;;;;;4.50;3.43;;;4.40;99.90;;;;;;5001321;28;20309;-71
2022/01/08 01:25:03;;;;;;;4.63;3.77;;;4.30;99.90;;;;;;5003032;28;20649;-71
2022/01/08 01:30:16;;;;;;;6.10;3.67;;;4.30;99.90;;;;;;5017715;28;20468;-71
2022/01/08 01:48:52;;;;;;;4.30;3.40;;;4.20;99.90;;;;;;4992286;28;20460;-70
2022/01/08 01:51:23;;;;;;;3.57;3.00;;;4.20;99.90;;;;;;5006208;28;20448;-69
2022/01/08 01:53:50;;;;;;;5.10;3.40;;;4.20;99.90;;;;;;5010699;28;20517;-71
2022/01/08 01:56:18;;;;;;;6.73;3.77;;;4.20;99.90;;;;;;4993983;28;20449;-71
2022/01/08 01:58:43;;;;;;;3.50;3.17;;;4.10;99.90;;;;;;5009465;28;20963;-70
2022/01/08 02:01:09;;;;;;;5.00;3.70;;;4.10;99.90;;;;;;5020723;28;23352;-70
2022/01/08 02:03:35;;;;;;;3.80;3.30;;;4.10;99.90;;;;;;5008507;28;20460;-71
2022/01/08 02:06:01;;;;;;;3.87;3.47;;;4.10;99.90;;;;;;5022863;28;20209;-70
2022/01/08 02:08:29;;;;;;;4.13;3.43;;;4.00;99.90;;;;;;5023756;28;20232;-70
2022/01/08 02:10:54;;;;;;;4.33;3.10;;;4.00;99.90;;;;;;5019932;28;20472;-70
2022/01/08 02:13:26;;;;;;;3.80;3.50;;;4.00;99.90;;;;;;5006531;28;20451;-71
2022/01/08 02:15:54;;;;;;;5.43;3.73;;;3.90;99.90;;;;;;5015813;28;20232;-71
2022/01/08 02:18:25;;;;;;;4.10;3.10;;;3.90;99.90;;;;;;5008731;28;20565;-71
2022/01/08 02:20:52;;;;;;;3.33;3.03;;;3.90;99.90;;;;;;5022427;28;20464;-72
2022/01/08 02:23:18;;;;;;;2.90;2.70;;;3.90;99.90;;;;;;5005285;28;20475;-70
2022/01/08 02:25:44;;;;;;;3.70;3.23;;;3.90;99.90;;;;;;5022833;28;20468;-69
2022/01/08 02:28:10;;;;;;;2.50;2.20;;;3.90;99.90;;;;;;5029685;28;20248;-70
2022/01/08 02:30:36;;;;;;;4.83;2.90;;;3.90;99.90;;;;;;5041833;28;20346;-70
2022/01/08 02:33:01;;;;;;;3.13;2.43;;;3.90;99.90;;;;;;5021582;28;20800;-71
2022/01/08 02:35:27;;;;;;;2.43;2.10;;;3.90;99.90;;;;;;5007831;28;20240;-70
2022/01/08 02:37:53;;;;;;;2.70;2.07;;;3.80;99.90;;;;;;5037629;28;20228;-70
2022/01/08 02:40:20;;;;;;;2.20;1.90;;;3.80;99.90;;;;;;5031728;28;20225;-70
2022/01/08 02:43:00;;;;;;;1.70;1.50;;;3.70;99.90;;;;;;5017482;28;20455;-71
2022/01/08 02:45:27;;;;;;;1.60;1.50;;;3.60;99.90;;;;;;5025800;28;20457;-71
2022/01/08 02:47:54;;;;;;;2.30;1.47;;;3.50;99.90;;;;;;5017971;28;20976;-70
2022/01/08 02:50:21;;;;;;;0.80;0.80;;;3.40;99.90;;;;;;5026244;28;20459;-70
2022/01/08 02:52:47;;;;;;;0.70;0.70;;;3.40;99.90;;;;;;5040290;28;20995;-70
2022/01/08 02:55:16;;;;;;;1.13;0.70;;;3.30;99.90;;;;;;5022085;28;20479;-70
2022/01/08 02:57:42;;;;;;;0.60;0.60;;;3.20;99.90;;;;;;5024495;28;20849;-70
2022/01/08 03:00:10;;;;;;;0.80;0.80;;;3.10;99.90;;;;;;5018659;28;20494;-70
2022/01/08 03:02:43;;;;;;;0.40;0.40;;;3.10;99.90;;;;;;5033925;28;20483;-70
2022/01/08 03:05:11;;;;;;;0.40;0.40;;;3.00;99.90;;;;;;5028183;28;20506;-71
2022/01/08 03:07:38;;;;;;;0.50;0.43;;;3.10;99.90;;;;;;5044726;28;20538;-69
2022/01/08 03:10:05;;;;;;;0.97;0.60;;;3.10;99.90;;;;;;5004009;28;20472;-69
2022/01/08 03:12:31;;;;;;;0.50;0.50;;;3.00;99.90;;;;;;5037727;28;20496;-71
2022/01/08 03:14:57;;;;;;;0.40;0.37;;;3.00;99.90;;;;;;5009386;28;20982;-71
2022/01/08 03:17:23;;;;;;;0.40;0.30;;;3.00;99.90;;;;;;5006488;28;20217;-71
2022/01/08 03:19:53;;;;;;;0.50;0.40;;;3.00;99.90;;;;;;5012862;28;20244;-70
2022/01/08 03:22:19;;;;;;;0.50;0.40;;;3.00;99.90;;;;;;5022678;28;20490;-70
2022/01/08 03:24:45;;;;;;;0.40;0.40;;;3.10;99.90;;;;;;5021421;28;20534;-70
2022/01/08 03:27:11;;;;;;;0.30;0.30;;;3.10;99.90;;;;;;5005773;28;20267;-70
2022/01/08 03:29:37;;;;;;;0.40;0.30;;;3.10;99.90;;;;;;5022710;28;20247;-70
2022/01/08 03:32:03;;;;;;;0.50;0.40;;;3.20;99.90;;;;;;5021613;28;20464;-70
2022/01/08 03:34:29;;;;;;;0.53;0.53;;;3.20;99.90;;;;;;5016046;28;20327;-70
2022/01/08 03:36:55;;;;;;;0.50;0.30;;;3.20;99.90;;;;;;5023887;28;20460;-71
2022/01/08 03:39:22;;;;;;;0.60;0.30;;;3.30;99.90;;;;;;4989520;28;20225;-70
2022/01/08 03:41:47;;;;;;;0.33;0.33;;;3.30;99.90;;;;;;5005453;28;20271;-71
2022/01/08 03:44:13;;;;;;;0.37;0.30;;;3.20;99.90;;;;;;5006856;28;20440;-69
2022/01/08 03:46:39;;;;;;;0.30;0.20;;;3.20;99.90;;;;;;5022136;28;20266;-70
2022/01/08 03:51:35;;;;;;;0.40;0.30;;;3.20;99.90;;;;;;5004265;28;20452;-70
2022/01/08 03:54:01;;;;;;;0.30;0.30;;;3.20;99.90;;;;;;5021557;28;20452;-71
2022/01/08 03:56:27;;;;;;;0.40;0.30;;;3.20;99.90;;;;;;5021688;28;20475;-70
2022/01/08 03:58:53;;;;;;;0.47;0.30;;;3.20;99.90;;;;;;5020990;28;20464;-70
2022/01/08 04:01:19;;;;;;;0.30;0.30;;;3.20;99.90;;;;;;5025266;28;20451;-70
2022/01/08 04:03:45;;;;;;;0.90;0.60;;;3.20;99.90;;;;;;5026093;28;20243;-70
2022/01/08 04:06:11;;;;;;;1.70;1.57;;;3.20;99.90;;;;;;5025135;28;20225;-70
2022/01/08 04:08:36;;;;;;;1.90;1.57;;;3.20;99.90;;;;;;5025085;28;20494;-69
2022/01/08 04:11:02;;;;;;;1.50;0.90;;;3.20;99.90;;;;;;5008950;28;20725;-71
2022/01/08 04:13:31;;;;;;;0.80;0.73;;;3.30;99.90;;;;;;5008370;28;20228;-70
2022/01/08 04:16:06;;;;;;;0.80;0.60;;;3.20;99.90;;;;;;5009186;28;20264;-70
2022/01/08 04:18:31;;;;;;;1.37;0.50;;;3.20;99.90;;;;;;5010699;28;20455;-69
2022/01/08 04:23:42;;;;;;;0.50;0.30;;;3.20;99.90;;;;;;5026087;28;20267;-70
2022/01/08 04:26:07;;;;;;;0.30;0.30;;;3.20;99.90;;;;;;5009743;28;20496;-71
2022/01/08 04:28:33;;;;;;;0.40;0.33;;;3.20;99.90;;;;;;5004782;28;20220;-70
2022/01/08 04:30:59;;;;;;;0.60;0.50;;;3.20;99.90;;;;;;5008937;28;20820;-70
2022/01/08 04:33:24;;;;;;;0.40;0.40;;;3.20;99.90;;;;;;5024782;28;20225;-70
2022/01/08 04:35:50;;;;;;;0.40;0.30;;;3.10;99.90;;;;;;5024832;28;20331;-72
2022/01/08 04:38:16;;;;;;;1.80;0.40;;;3.10;99.90;;;;;;5004782;28;20220;-70
2022/01/08 04:40:42;;;;;;;0.40;0.40;;;3.10;99.90;;;;;;5025360;28;20251;-69
2022/01/08 04:43:08;;;;;;;0.40;0.40;;;3.10;99.90;;;;;;5024469;28;20232;-70
2022/01/08 04:45:33;;;;;;;1.47;0.33;;;3.00;99.90;;;;;;5025262;28;20221;-70
2022/01/08 04:48:01;;;;;;;0.50;0.50;;;3.00;99.90;;;;;;5015052;28;20225;-70
2022/01/08 04:50:27;;;;;;;0.40;0.40;;;3.00;99.90;;;;;;5034121;28;20220;-70
2022/01/08 04:52:54;;;;;;;0.40;0.30;;;3.00;99.90;;;;;;5045096;28;20458;-71
2022/01/08 04:55:20;;;;;;;0.57;0.43;;;3.00;99.90;;;;;;5064149;28;20469;-71
2022/01/08 04:57:47;;;;;;;0.50;0.50;;;3.00;99.90;;;;;;5045102;28;20633;-70
2022/01/08 05:00:14;;;;;;;0.50;0.50;;;2.90;99.90;;;;;;5053747;28;20228;-70
2022/01/08 05:02:40;;;;;;;0.63;0.50;;;3.00;99.90;;;;;;5044756;28;20454;-71
2022/01/08 05:05:06;;;;;;;0.63;0.57;;;3.00;99.90;;;;;;5043531;28;20989;-70
2022/01/08 05:07:31;;;;;;;3.30;0.80;;;3.00;99.90;;;;;;5043172;28;20215;-70
2022/01/08 05:09:57;;;;;;;0.50;0.50;;;3.00;99.90;;;;;;5026928;28;20458;-71
2022/01/08 05:12:23;;;;;;;1.07;0.70;;;3.00;99.90;;;;;;5019074;28;20701;-72
2022/01/08 05:14:49;;;;;;;0.70;0.50;;;3.00;99.90;;;;;;4994690;28;20255;-71
2022/01/08 05:17:15;;;;;;;1.23;0.87;;;3.00;99.90;;;;;;5012601;28;20247;-71
2022/01/08 05:19:46;;;;;;;;;;;;;;;;;;;;;
2022/01/08 05:22:09;;;;;;;1.53;1.17;;;2.90;99.90;;;;;;5010463;28;20460;-70
2022/01/08 05:24:35;;;;;;;1.00;0.90;;;2.90;99.90;;;;;;5012643;28;20514;-71
2022/01/08 05:27:03;;;;;;;1.40;1.30;;;2.90;99.90;;;;;;5021831;28;20471;-71
2022/01/08 05:29:30;;;;;;;2.10;1.60;;;3.00;99.90;;;;;;5050439;28;20463;-71
2022/01/08 05:31:56;;;;;;;4.90;1.50;;;3.00;99.90;;;;;;5059538;28;20461;-70
2022/01/08 05:34:22;;;;;;;2.17;1.80;;;3.00;99.90;;;;;;5041730;28;20439;-70
2022/01/08 05:36:47;;;;;;;1.40;1.30;;;2.90;99.90;;;;;;5046624;28;20462;-70
2022/01/08 05:39:13;;;;;;;3.23;1.63;;;2.90;99.90;;;;;;5041725;28;20261;-71
2022/01/08 05:41:39;;;;;;;1.97;1.63;;;2.90;99.90;;;;;;5054867;28;20303;-71
2022/01/08 05:44:05;;;;;;;1.67;1.57;;;2.90;99.90;;;;;;5039285;28;20243;-71
2022/01/08 05:46:30;;;;;;;3.70;1.87;;;2.90;99.90;;;;;;5030040;28;20227;-71
2022/01/08 05:49:01;;;;;;;1.83;1.47;;;2.90;99.90;;;;;;5031822;28;20451;-71
2022/01/08 05:51:26;;;;;;;1.67;1.53;;;2.90;99.90;;;;;;5042440;28;20224;-71
2022/01/08 05:53:52;;;;;;;3.07;1.97;;;2.90;99.90;;;;;;5035813;28;20451;-71
2022/01/08 05:56:17;;;;;;;1.73;1.60;;;2.80;99.90;;;;;;5029787;28;20271;-70
2022/01/08 05:58:43;;;;;;;2.13;1.90;;;2.80;99.90;;;;;;5033545;28;20235;-71
2022/01/08 06:01:09;;;;;;;3.73;2.27;;;2.80;99.90;;;;;;5059171;28;20285;-69
2022/01/08 06:03:35;;;;;;;4.10;2.33;;;2.80;99.90;;;;;;5057877;28;20228;-71
2022/01/08 06:06:00;;;;;;;5.60;2.97;;;2.80;99.90;;;;;;5060535;28;20463;-70
2022/01/08 06:08:26;;;;;;;3.60;2.70;;;2.70;99.90;;;;;;5055327;28;20298;-71
2022/01/08 06:10:52;;;;;;;5.03;2.93;;;2.70;99.90;;;;;;5039375;28;20221;-71
2022/01/08 06:13:18;;;;;;;3.47;2.37;;;2.60;99.90;;;;;;5042265;28;20223;-70
2022/01/08 06:15:44;;;;;;;2.90;2.30;;;2.60;99.90;;;;;;5030929;28;20479;-70
2022/01/08 06:18:09;;;;;;;9.33;4.40;;;2.70;99.90;;;;;;5046110;28;20236;-71
2022/01/08 06:20:35;;;;;;;7.50;4.10;;;2.60;99.90;;;;;;5036401;28;20298;-71
2022/01/08 06:23:01;;;;;;;4.53;2.97;;;2.60;99.90;;;;;;5046464;28;20224;-71
2022/01/08 06:25:26;;;;;;;8.23;3.80;;;2.50;99.90;;;;;;5048493;28;20227;-70
2022/01/08 06:27:54;;;;;;;5.93;2.90;;;2.50;99.90;;;;;;5049774;28;20224;-71
2022/01/08 06:30:19;;;;;;;4.47;3.27;;;2.60;99.90;;;;;;5037476;28;20746;-69
2022/01/08 06:32:45;;;;;;;7.40;2.90;;;2.60;99.90;;;;;;5058480;28;20450;-71
2022/01/08 06:35:11;;;;;;;4.37;2.57;;;2.60;99.90;;;;;;5041645;28;20245;-71
2022/01/08 06:37:36;;;;;;;5.73;3.40;;;2.70;99.90;;;;;;5066224;28;20224;-71
2022/01/08 06:40:02;;;;;;;7.43;2.90;;;2.80;99.90;;;;;;5061650;28;20216;-71
2022/01/08 06:42:28;;;;;;;5.80;3.10;;;2.80;99.90;;;;;;5032694;28;20344;-72
2022/01/08 06:44:54;;;;;;;6.10;3.03;;;2.80;99.90;;;;;;5054087;28;20467;-70
2022/01/08 06:47:19;;;;;;;7.73;3.40;;;2.90;99.90;;;;;;5049213;28;20601;-71
2022/01/08 06:49:45;;;;;;;3.40;2.50;;;2.90;99.90;;;;;;5042233;28;20211;-71
2022/01/08 06:52:11;;;;;;;3.27;2.47;;;2.90;99.90;;;;;;5057468;28;20238;-70
2022/01/08 06:54:36;;;;;;;4.13;2.90;;;2.90;99.90;;;;;;5053907;28;20232;-72
2022/01/08 06:57:02;;;;;;;5.53;3.40;;;2.90;99.90;;;;;;5051091;28;20227;-68
2022/01/08 06:59:28;;;;;;;9.30;3.90;;;2.90;99.90;;;;;;5052513;28;20228;-71
2022/01/08 07:01:54;;;;;;;4.83;2.70;;;2.90;99.90;;;;;;5026743;28;20466;-72
2022/01/08 07:04:19;;;;;;;6.13;2.43;;;2.90;99.90;;;;;;5042048;28;20222;-71
2022/01/08 07:06:45;;;;;;;4.00;2.70;;;3.00;99.90;;;;;;5053408;28;20212;-71
2022/01/08 07:09:11;;;;;;;5.77;3.13;;;3.00;99.90;;;;;;5044758;28;20235;-71
2022/01/08 07:11:36;;;;;;;7.03;4.67;;;3.00;99.90;;;;;;5047145;28;20220;-70
2022/01/08 07:14:02;;;;;;;5.33;3.93;;;3.00;99.90;;;;;;5040524;28;20295;-72
2022/01/08 07:16:28;;;;;;;8.00;5.10;;;2.90;99.90;;;;;;5055457;28;20254;-71
2022/01/08 07:18:53;;;;;;;12.97;5.47;;;2.90;99.90;;;;;;5029868;28;20228;-71
2022/01/08 07:21:19;;;;;;;9.00;4.43;;;2.90;99.90;;;;;;5028206;28;20576;-70
2022/01/08 07:23:45;;;;;;;7.40;4.50;;;2.90;99.90;;;;;;5035802;28;20250;-71
2022/01/08 07:26:10;;;;;;;7.73;4.60;;;2.90;99.90;;;;;;5057362;28;20244;-71
2022/01/08 07:28:38;;;;;;;13.80;7.10;;;2.80;99.90;;;;;;5033762;28;20223;-71
2022/01/08 07:31:03;;;;;;;29.43;14.23;;;2.70;99.90;;;;;;5065243;28;20620;-72
2022/01/08 07:33:29;;;;;;;26.57;20.13;;;2.70;99.90;;;;;;5038344;28;20451;-71
2022/01/08 07:35:55;;;;;;;40.60;28.57;;;2.50;99.90;;;;;;5045537;28;20224;-72
2022/01/08 07:38:22;;;;;;;51.93;30.93;;;2.50;99.90;;;;;;5045167;28;20231;-71
2022/01/08 07:40:51;;;;;;;37.70;25.90;;;2.40;99.90;;;;;;5026647;28;20222;-70
2022/01/08 07:43:17;;;;;;;28.20;21.17;;;2.40;99.90;;;;;;4995301;28;20499;-71
2022/01/08 07:45:43;;;;;;;20.10;13.23;;;2.30;99.90;;;;;;5003389;28;20590;-71
2022/01/08 07:48:09;;;;;;;10.60;8.40;;;2.30;99.90;;;;;;5007588;28;20543;-71
2022/01/08 07:50:35;;;;;;;9.67;4.97;;;2.30;99.90;;;;;;5019281;28;20659;-71
2022/01/08 07:53:00;;;;;;;4.97;3.60;;;2.30;99.90;;;;;;5025455;28;20217;-71
2022/01/08 07:55:26;;;;;;;5.40;2.77;;;2.30;99.90;;;;;;5006470;28;20249;-71
2022/01/08 07:57:51;;;;;;;5.20;3.10;;;2.30;99.90;;;;;;4998695;28;20229;-71
2022/01/08 08:00:17;;;;;;;4.53;3.00;;;2.20;99.90;;;;;;5020903;28;20221;-71
2022/01/08 08:02:43;;;;;;;4.00;2.93;;;2.20;99.90;;;;;;5000012;28;20229;-72
2022/01/08 08:05:09;;;;;;;7.97;3.33;;;2.20;99.90;;;;;;5000184;28;20213;-72
2022/01/08 08:07:38;;;;;;;4.17;2.40;;;2.20;99.90;;;;;;5024749;28;20484;-71
2022/01/08 08:10:10;;;;;;;7.73;3.33;;;2.20;99.90;;;;;;5028839;28;20463;-71
2022/01/08 08:12:40;;;;;;;3.17;2.40;;;2.20;99.90;;;;;;5007094;28;20845;-71
2022/01/08 08:15:08;;;;;;;3.67;2.67;;;2.20;99.90;;;;;;5021510;28;20996;-70
2022/01/08 08:17:34;;;;;;;2.00;1.80;;;2.10;99.90;;;;;;5006885;28;20447;-71
2022/01/08 08:20:04;;;;;;;4.80;2.70;;;2.10;99.90;;;;;;5024822;28;20444;-71
2022/01/08 08:22:30;;;;;;;3.63;2.33;;;2.10;99.90;;;;;;5008833;28;20467;-71
2022/01/08 08:24:55;;;;;;;3.30;1.83;;;2.00;99.90;;;;;;5024860;28;20452;-71
2022/01/08 08:27:21;;;;;;;2.20;1.70;;;2.10;99.90;;;;;;5028842;28;20615;-70
2022/01/08 08:29:47;;;;;;;3.47;2.30;;;2.10;99.90;;;;;;5015075;28;20243;-71
2022/01/08 08:32:12;;;;;;;4.90;3.13;;;2.10;99.90;;;;;;5025516;28;20296;-70
2022/01/08 08:34:38;;;;;;;3.10;2.20;;;2.10;99.90;;;;;;5008671;28;20244;-69
2022/01/08 08:37:05;;;;;;;4.30;2.93;;;2.10;99.90;;;;;;5024549;28;20304;-70
2022/01/08 08:39:30;;;;;;;4.00;2.50;;;2.10;99.90;;;;;;5007905;28;20228;-71
2022/01/08 08:41:56;;;;;;;3.33;2.07;;;2.10;99.90;;;;;;5008853;28;20460;-71
2022/01/08 08:44:22;;;;;;;4.77;3.17;;;2.10;99.90;;;;;;5008376;28;20218;-71
2022/01/08 08:46:48;;;;;;;4.03;2.37;;;2.10;99.90;;;;;;5022724;28;20212;-70
2022/01/08 08:49:13;;;;;;;3.27;2.33;;;2.00;99.90;;;;;;5037755;28;20236;-71
2022/01/08 08:51:39;;;;;;;2.50;2.30;;;2.00;99.90;;;;;;5027938;28;20216;-72
2022/01/08 08:54:05;;;;;;;8.63;4.47;;;2.00;99.90;;;;;;5056552;28;20585;-72
2022/01/08 08:56:30;;;;;;;3.77;3.47;;;2.00;99.90;;;;;;5041294;28;20312;-71
2022/01/08 08:58:57;;;;;;;3.83;3.50;;;2.10;99.90;;;;;;5025044;28;20217;-71
2022/01/08 09:01:23;;;;;;;5.00;4.10;;;2.10;99.90;;;;;;5038905;28;20224;-72
2022/01/08 09:03:49;;;;;;;4.23;3.93;;;2.10;99.90;;;;;;5047735;28;20843;-71
2022/01/08 09:06:15;;;;;;;3.80;2.80;;;2.10;99.90;;;;;;5030429;28;20457;-71
2022/01/08 09:08:40;;;;;;;3.80;2.23;;;2.10;99.90;;;;;;5026310;28;20255;-71
2022/01/08 09:11:06;;;;;;;5.73;2.90;;;2.20;99.90;;;;;;5015379;28;20313;-70
2022/01/08 09:13:31;;;;;;;3.17;1.93;;;2.20;99.90;;;;;;5011839;28;20576;-71
2022/01/08 09:15:57;;;;;;;2.40;2.20;;;2.30;99.90;;;;;;5046606;28;20602;-71
2022/01/08 09:18:23;;;;;;;2.80;2.07;;;2.30;99.90;;;;;;5032211;28;20235;-71
2022/01/08 09:20:49;;;;;;;4.50;2.63;;;2.40;99.90;;;;;;5055349;28;20593;-70
2022/01/08 09:23:15;;;;;;;4.47;3.20;;;2.40;99.90;;;;;;5030292;28;20226;-70
2022/01/08 09:25:41;;;;;;;44.43;16.90;;;2.50;99.90;;;;;;5038058;28;20216;-71
2022/01/08 09:28:07;;;;;;;25.53;13.70;;;2.50;99.90;;;;;;5002983;28;20550;-68
2022/01/08 09:30:32;;;;;;;5.00;3.33;;;2.60;99.90;;;;;;5023267;28;20456;-71
2022/01/08 09:32:58;;;;;;;3.50;2.43;;;2.60;99.90;;;;;;5026422;28;20640;-72
2022/01/08 09:35:25;;;;;;;3.43;2.10;;;2.60;99.90;;;;;;5038917;28;20234;-71
2022/01/08 09:37:52;;;;;;;3.60;2.60;;;2.60;99.90;;;;;;5040597;28;20726;-70
2022/01/08 09:40:19;;;;;;;5.83;2.13;;;2.60;99.90;;;;;;5013288;28;20465;-71
2022/01/08 09:42:45;;;;;;;3.97;2.63;;;2.70;99.90;;;;;;5012645;28;20452;-71
2022/01/08 09:45:12;;;;;;;2.43;2.27;;;2.70;99.90;;;;;;5013190;28;20476;-71
2022/01/08 09:47:38;;;;;;;2.73;1.80;;;2.70;99.90;;;;;;5003208;28;20456;-71
2022/01/08 09:50:05;;;;;;;4.07;2.57;;;2.80;99.90;;;;;;5015465;28;20448;-71
2022/01/08 09:52:32;;;;;;;3.27;2.50;;;2.70;99.90;;;;;;5006343;28;20507;-71
2022/01/08 09:54:58;;;;;;;2.40;2.20;;;2.80;99.90;;;;;;5009623;28;20487;-72
2022/01/08 09:57:23;;;;;;;2.80;2.20;;;2.80;99.90;;;;;;5008278;28;20460;-71
2022/01/08 09:59:50;;;;;;;5.07;2.40;;;2.80;99.90;;;;;;5010539;28;20268;-70
2022/01/08 10:02:21;;;;;;;6.07;2.50;;;2.90;99.90;;;;;;4989172;28;20217;-71
2022/01/08 10:04:47;;;;;;;5.63;2.60;;;2.90;99.90;;;;;;5007893;28;20470;-71
2022/01/08 10:07:24;;;;;;;1.63;1.47;;;3.00;99.90;;;;;;4994866;28;20465;-71
2022/01/08 10:10:12;;;;;;;4.30;2.33;;;3.00;99.90;;;;;;5010725;28;20235;-71
2022/01/08 10:12:40;;;;;;;3.63;2.53;;;3.00;99.90;;;;;;5005277;28;20573;-71
2022/01/08 10:17:52;;;;;;;9.03;3.20;;;3.10;99.90;;;;;;5004726;28;20456;-70
2022/01/08 10:20:36;;;;;;;9.30;3.70;;;3.10;99.90;;;;;;5023556;28;20453;-71
2022/01/08 10:23:08;;;;;;;4.70;2.50;;;3.10;99.90;;;;;;5024478;28;20232;-71
2022/01/08 10:25:33;;;;;;;9.60;2.63;;;3.10;99.90;;;;;;5011513;28;20444;-70
2022/01/08 10:27:59;;;;;;;7.40;2.63;;;3.20;99.90;;;;;;5005691;28;20491;-71
2022/01/08 10:30:26;;;;;;;4.33;3.20;;;3.30;99.90;;;;;;5038401;28;20213;-70
2022/01/08 10:32:59;;;;;;;7.10;3.40;;;3.30;99.90;;;;;;5025508;28;20712;-70
2022/01/08 10:35:48;;;;;;;6.47;3.43;;;3.30;99.90;;;;;;5010483;28;20472;-68
2022/01/08 10:38:13;;;;;;;8.10;3.90;;;3.30;99.90;;;;;;5007065;28;20444;-71
2022/01/08 10:40:39;;;;;;;14.73;6.00;;;3.30;99.90;;;;;;5038690;28;20461;-71
2022/01/08 10:43:24;;;;;;;9.30;5.40;;;3.40;99.90;;;;;;5008571;28;20301;-69
2022/01/08 10:45:50;;;;;;;12.47;6.03;;;3.40;99.90;;;;;;5002594;28;20228;-69
2022/01/08 10:48:30;;;;;;;12.47;6.93;;;3.40;99.90;;;;;;5019343;28;20436;-70
2022/01/08 10:51:14;;;;;;;35.40;14.90;;;3.40;99.90;;;;;;5010419;28;20595;-70
2022/01/08 10:54:16;;;;;;;18.00;8.90;;;3.40;99.90;;;;;;5025736;28;20459;-71
2022/01/08 10:56:48;;;;;;;25.47;11.23;;;3.40;99.90;;;;;;5009975;28;20470;-71
2022/01/08 10:59:22;;;;;;;37.57;18.47;;;3.40;99.90;;;;;;5026239;28;20536;-70
2022/01/08 11:01:50;;;;;;;43.77;19.53;;;3.40;99.90;;;;;;5019788;28;20564;-69
2022/01/08 11:04:46;;;;;;;36.50;21.03;;;3.50;99.90;;;;;;5003710;28;20455;-69
2022/01/08 11:07:29;;;;;;;21.07;12.43;;;3.50;99.90;;;;;;5023723;28;20521;-70
2022/01/08 11:10:03;;;;;;;21.27;11.33;;;3.50;99.90;;;;;;5006325;28;20506;-70
2022/01/08 11:12:35;;;;;;;21.00;12.60;;;3.50;99.90;;;;;;5024034;28;20467;-69
2022/01/08 11:17:46;;;;;;;28.70;16.23;;;3.60;99.90;;;;;;5024555;28;21122;-70
2022/01/08 11:20:20;;;;;;;26.17;12.33;;;3.70;99.90;;;;;;5021132;28;20459;-71
2022/01/08 11:22:48;;;;;;;11.80;8.00;;;3.70;99.90;;;;;;5021750;28;20463;-70
2022/01/08 11:25:23;;;;;;;18.03;11.17;;;3.80;99.90;;;;;;5023803;28;20555;-70
2022/01/08 11:27:54;;;;;;;13.23;10.20;;;3.80;99.90;;;;;;5017281;28;20482;-70
2022/01/08 11:30:24;;;;;;;11.10;6.00;;;3.80;99.90;;;;;;5046708;28;20455;-70
2022/01/08 11:32:55;;;;;;;8.03;5.87;;;3.80;99.90;;;;;;5033795;28;20439;-70
2022/01/08 11:35:23;;;;;;;6.33;4.23;;;3.90;99.90;;;;;;5026728;28;20468;-70
2022/01/08 11:37:50;;;;;;;5.83;3.77;;;3.90;99.90;;;;;;5014755;28;20459;-69
2022/01/08 11:40:21;;;;;;;4.40;3.80;;;3.90;99.90;;;;;;5020023;28;20441;-70
2022/01/08 11:42:47;;;;;;;6.67;5.40;;;3.90;99.90;;;;;;5009423;28;20460;-70
2022/01/08 11:45:20;;;;;;;9.73;4.77;;;4.00;99.90;;;;;;5032125;28;20452;-70
2022/01/08 11:47:57;;;;;;;11.17;5.10;;;3.90;99.90;;;;;;5026147;28;20513;-71
2022/01/08 11:50:26;;;;;;;6.27;4.63;;;3.90;99.90;;;;;;5023761;28;20462;-69
2022/01/08 11:53:18;;;;;;;10.00;6.67;;;4.00;99.90;;;;;;5030809;28;20454;-70
2022/01/08 11:55:51;;;;;;;22.30;10.30;;;4.00;99.90;;;;;;5048363;28;20467;-70
2022/01/08 11:58:26;;;;;;;26.97;13.60;;;4.00;99.90;;;;;;5037672;28;20484;-69
2022/01/08 12:01:04;;;;;;;36.07;19.50;;;3.90;99.90;;;;;;5005184;28;21019;-71
2022/01/08 12:03:50;;;;;;;61.33;25.20;;;3.90;99.90;;;;;;5011417;28;21039;-69
2022/01/08 12:06:18;;;;;;;37.00;18.37;;;3.90;99.90;;;;;;5004355;28;20460;-70
2022/01/08 12:09:23;;;;;;;19.00;10.43;;;4.00;99.90;;;;;;5000749;28;20558;-69
2022/01/08 12:12:04;;;;;;;28.93;13.87;;;4.00;99.90;;;;;;5005309;28;20468;-70
2022/01/08 12:14:36;;;;;;;32.83;14.37;;;4.00;99.90;;;;;;4988216;28;20471;-70
2022/01/08 12:17:18;;;;;;;22.37;11.80;;;4.00;99.90;;;;;;5007450;28;20455;-70
2022/01/08 12:19:54;;;;;;;14.07;7.90;;;4.00;99.90;;;;;;5006147;28;20547;-70
2022/01/08 12:22:20;;;;;;;6.47;5.33;;;4.10;99.90;;;;;;5017338;28;20470;-69
2022/01/08 12:24:56;;;;;;;8.43;4.60;;;4.00;99.90;;;;;;5021094;28;20464;-69
2022/01/08 12:27:34;;;;;;;6.27;4.07;;;4.00;99.90;;;;;;5021902;28;20240;-70
2022/01/08 12:30:21;;;;;;;5.83;4.53;;;4.00;99.90;;;;;;5032181;28;20844;-71
2022/01/08 12:32:50;;;;;;;7.00;4.07;;;4.00;99.90;;;;;;5028513;28;20449;-69
2022/01/08 12:35:20;;;;;;;5.57;4.23;;;4.00;99.90;;;;;;5055968;28;20470;-70
2022/01/08 12:37:52;;;;;;;6.30;3.80;;;4.00;99.90;;;;;;5047842;28;20490;-69
2022/01/08 12:40:47;;;;;;;5.40;3.00;;;4.00;99.90;;;;;;5051702;28;20455;-69
2022/01/08 12:43:29;;;;;;;4.43;2.53;;;4.10;99.90;;;;;;5019919;28;20460;-70
2022/01/08 12:46:17;;;;;;;6.10;2.83;;;4.10;99.90;;;;;;5012866;28;20994;-70
2022/01/08 12:49:05;;;;;;;7.60;2.57;;;4.00;99.90;;;;;;5037754;28;20463;-71
2022/01/08 12:51:41;;;;;;;5.50;3.53;;;4.00;99.90;;;;;;5006846;28;20508;-68
2022/01/08 12:54:06;;;;;;;20.47;11.80;;;4.00;99.90;;;;;;5020623;28;20993;-70
2022/01/08 12:56:32;;;;;;;15.10;8.30;;;4.00;99.90;;;;;;5030054;28;20497;-70
2022/01/08 12:59:01;;;;;;;5.73;4.53;;;4.00;99.90;;;;;;5029190;28;20212;-71
2022/01/08 13:01:28;;;;;;;7.63;4.50;;;4.00;99.90;;;;;;5041252;28;20477;-71
2022/01/08 13:03:56;;;;;;;10.23;6.80;;;4.00;99.90;;;;;;5049300;28;21017;-71
2022/01/08 13:06:35;;;;;;;11.90;8.37;;;4.00;99.90;;;;;;5035649;28;20465;-69
2022/01/08 13:09:04;;;;;;;10.63;7.07;;;4.00;99.90;;;;;;5006268;28;20467;-71
2022/01/08 13:11:32;;;;;;;8.27;6.23;;;4.00;99.90;;;;;;5007886;28;20577;-70
2022/01/08 13:14:05;;;;;;;4.43;4.03;;;4.00;99.90;;;;;;5029653;28;20486;-71
2022/01/08 13:16:38;;;;;;;3.93;3.50;;;4.00;99.90;;;;;;5032002;28;20467;-70
2022/01/08 13:19:09;;;;;;;6.40;3.07;;;4.00;99.90;;;;;;5032248;28;20995;-71
2022/01/08 13:21:44;;;;;;;3.07;1.93;;;4.00;99.90;;;;;;5035602;28;20460;-70
2022/01/08 13:24:16;;;;;;;3.20;2.90;;;4.00;99.90;;;;;;5024462;28;20474;-69
2022/01/08 13:26:47;;;;;;;2.20;2.00;;;4.00;99.90;;;;;;5033944;28;20456;-70
2022/01/08 13:29:18;;;;;;;2.37;2.20;;;4.00;99.90;;;;;;5027239;28;20509;-69
2022/01/08 13:31:48;;;;;;;2.37;2.17;;;4.00;99.90;;;;;;5026067;28;20471;-70